sensor_id;sensor_type;location;lat;lon;timestamp;P1;durP1;ratioP1;P2;durP2;ratioP2
18411;SDS011;27097;51.738;19.472;2023-06-04T00:00:53;5.20;;;2.00;;
18411;SDS011;27097;51.738;19.472;2023-06-04T00:03:21;4.10;;;1.92;;
18411;SDS011;27097;51.738;19.472;2023-06-04T00:05:48;4.88;;;2.30;;
18411;SDS011;27097;51.738;19.472;2023-06-04T00:08:15;3.05;;;1.98;;
18411;SDS011;27097;51.738;19.472;2023-06-04T00:10:42;4.90;;;1.98;;
18411;SDS011;27097;51.738;19.472;2023-06-04T00:13:09;3.85;;;2.00;;
18411;SDS011;27097;51.738;19.472;2023-06-04T00:15:35;4.10;;;1.80;;
18411;SDS011;27097;51.738;19.472;2023-06-04T00:18:02;5.95;;;2.33;;
18411;SDS011;27097;51.738;19.472;2023-06-04T00:20:30;2.95;;;1.90;;
18411;SDS011;27097;51.738;19.472;2023-06-04T00:22:57;4.03;;;2.03;;
18411;SDS011;27097;51.738;19.472;2023-06-04T00:25:24;2.92;;;2.05;;
18411;SDS011;27097;51.738;19.472;2023-06-04T00:27:51;3.03;;;2.00;;
18411;SDS011;27097;51.738;19.472;2023-06-04T00:30:18;2.58;;;1.98;;
18411;SDS011;27097;51.738;19.472;2023-06-04T00:32:45;4.03;;;2.10;;
18411;SDS011;27097;51.738;19.472;2023-06-04T00:35:12;4.00;;;2.00;;
18411;SDS011;27097;51.738;19.472;2023-06-04T00:37:40;6.65;;;1.98;;
18411;SDS011;27097;51.738;19.472;2023-06-04T00:40:07;3.35;;;1.90;;
18411;SDS011;27097;51.738;19.472;2023-06-04T00:42:35;5.28;;;2.05;;
18411;SDS011;27097;51.738;19.472;2023-06-04T00:45:02;3.00;;;1.70;;
18411;SDS011;27097;51.738;19.472;2023-06-04T00:47:30;3.40;;;1.65;;
18411;SDS011;27097;51.738;19.472;2023-06-04T00:49:57;5.35;;;1.90;;
18411;SDS011;27097;51.738;19.472;2023-06-04T00:52:25;3.97;;;1.95;;
18411;SDS011;27097;51.738;19.472;2023-06-04T00:54:53;3.67;;;2.28;;
18411;SDS011;27097;51.738;19.472;2023-06-04T00:57:20;3.80;;;1.88;;
18411;SDS011;27097;51.738;19.472;2023-06-04T00:59:47;8.18;;;2.45;;
18411;SDS011;27097;51.738;19.472;2023-06-04T01:02:16;3.35;;;2.22;;
18411;SDS011;27097;51.738;19.472;2023-06-04T01:04:46;4.18;;;2.30;;
18411;SDS011;27097;51.738;19.472;2023-06-04T01:07:16;2.17;;;1.98;;
18411;SDS011;27097;51.738;19.472;2023-06-04T01:09:44;3.30;;;1.88;;
18411;SDS011;27097;51.738;19.472;2023-06-04T01:12:13;1.85;;;1.50;;
18411;SDS011;27097;51.738;19.472;2023-06-04T01:14:40;3.45;;;1.88;;
18411;SDS011;27097;51.738;19.472;2023-06-04T01:17:10;3.25;;;2.05;;
18411;SDS011;27097;51.738;19.472;2023-06-04T01:19:48;3.40;;;2.00;;
18411;SDS011;27097;51.738;19.472;2023-06-04T01:22:33;3.72;;;1.83;;
18411;SDS011;27097;51.738;19.472;2023-06-04T01:25:05;3.75;;;2.10;;
18411;SDS011;27097;51.738;19.472;2023-06-04T01:27:46;3.58;;;1.88;;
18411;SDS011;27097;51.738;19.472;2023-06-04T01:30:15;3.10;;;1.88;;
18411;SDS011;27097;51.738;19.472;2023-06-04T01:32:43;4.47;;;1.90;;
18411;SDS011;27097;51.738;19.472;2023-06-04T01:35:11;3.38;;;1.88;;
18411;SDS011;27097;51.738;19.472;2023-06-04T01:37:39;3.22;;;1.90;;
18411;SDS011;27097;51.738;19.472;2023-06-04T01:40:06;2.40;;;1.77;;
18411;SDS011;27097;51.738;19.472;2023-06-04T01:42:34;3.83;;;1.90;;
18411;SDS011;27097;51.738;19.472;2023-06-04T01:45:02;4.03;;;2.20;;
18411;SDS011;27097;51.738;19.472;2023-06-04T01:47:30;2.90;;;2.10;;
18411;SDS011;27097;51.738;19.472;2023-06-04T01:49:57;5.07;;;1.98;;
18411;SDS011;27097;51.738;19.472;2023-06-04T01:52:24;4.80;;;1.83;;
18411;SDS011;27097;51.738;19.472;2023-06-04T01:54:51;3.40;;;1.98;;
18411;SDS011;27097;51.738;19.472;2023-06-04T01:57:18;3.38;;;1.88;;
18411;SDS011;27097;51.738;19.472;2023-06-04T01:59:45;5.50;;;2.20;;
18411;SDS011;27097;51.738;19.472;2023-06-04T02:02:14;3.03;;;2.00;;
18411;SDS011;27097;51.738;19.472;2023-06-04T02:04:41;2.35;;;1.65;;
18411;SDS011;27097;51.738;19.472;2023-06-04T02:07:10;2.55;;;2.00;;
18411;SDS011;27097;51.738;19.472;2023-06-04T02:09:42;3.50;;;1.98;;
18411;SDS011;27097;51.738;19.472;2023-06-04T02:12:09;3.42;;;2.08;;
18411;SDS011;27097;51.738;19.472;2023-06-04T02:14:36;3.08;;;2.00;;
18411;SDS011;27097;51.738;19.472;2023-06-04T02:17:03;2.53;;;1.90;;
18411;SDS011;27097;51.738;19.472;2023-06-04T02:19:31;3.63;;;1.55;;
18411;SDS011;27097;51.738;19.472;2023-06-04T02:22:02;2.50;;;1.77;;
18411;SDS011;27097;51.738;19.472;2023-06-04T02:24:28;2.90;;;2.00;;
18411;SDS011;27097;51.738;19.472;2023-06-04T02:26:55;3.35;;;2.05;;
18411;SDS011;27097;51.738;19.472;2023-06-04T02:29:22;2.58;;;1.80;;
18411;SDS011;27097;51.738;19.472;2023-06-04T02:31:50;4.78;;;1.73;;
18411;SDS011;27097;51.738;19.472;2023-06-04T02:34:17;3.60;;;1.90;;
18411;SDS011;27097;51.738;19.472;2023-06-04T02:36:45;4.15;;;1.92;;
18411;SDS011;27097;51.738;19.472;2023-06-04T02:39:13;4.10;;;1.80;;
18411;SDS011;27097;51.738;19.472;2023-06-04T02:41:40;4.35;;;2.20;;
18411;SDS011;27097;51.738;19.472;2023-06-04T02:44:07;4.40;;;2.05;;
18411;SDS011;27097;51.738;19.472;2023-06-04T02:46:33;4.22;;;2.10;;
18411;SDS011;27097;51.738;19.472;2023-06-04T02:49:00;3.45;;;1.88;;
18411;SDS011;27097;51.738;19.472;2023-06-04T02:51:27;3.05;;;1.83;;
18411;SDS011;27097;51.738;19.472;2023-06-04T02:53:55;2.47;;;1.85;;
18411;SDS011;27097;51.738;19.472;2023-06-04T02:56:22;5.45;;;2.00;;
18411;SDS011;27097;51.738;19.472;2023-06-04T02:58:50;2.95;;;1.85;;
18411;SDS011;27097;51.738;19.472;2023-06-04T03:01:18;2.55;;;1.75;;
18411;SDS011;27097;51.738;19.472;2023-06-04T03:03:46;4.32;;;1.88;;
18411;SDS011;27097;51.738;19.472;2023-06-04T03:06:13;2.90;;;1.77;;
18411;SDS011;27097;51.738;19.472;2023-06-04T03:08:41;2.90;;;2.00;;
18411;SDS011;27097;51.738;19.472;2023-06-04T03:11:09;6.00;;;1.80;;
18411;SDS011;27097;51.738;19.472;2023-06-04T03:13:36;3.55;;;2.05;;
18411;SDS011;27097;51.738;19.472;2023-06-04T03:16:03;3.42;;;2.15;;
18411;SDS011;27097;51.738;19.472;2023-06-04T03:18:34;4.35;;;1.88;;
18411;SDS011;27097;51.738;19.472;2023-06-04T03:21:02;2.95;;;1.90;;
18411;SDS011;27097;51.738;19.472;2023-06-04T03:23:29;3.05;;;1.85;;
18411;SDS011;27097;51.738;19.472;2023-06-04T03:25:56;2.38;;;1.73;;
18411;SDS011;27097;51.738;19.472;2023-06-04T03:28:25;5.88;;;2.10;;
18411;SDS011;27097;51.738;19.472;2023-06-04T03:30:51;2.85;;;2.08;;
18411;SDS011;27097;51.738;19.472;2023-06-04T03:33:18;3.03;;;1.67;;
18411;SDS011;27097;51.738;19.472;2023-06-04T03:35:45;3.58;;;2.17;;
18411;SDS011;27097;51.738;19.472;2023-06-04T03:38:13;3.70;;;2.00;;
18411;SDS011;27097;51.738;19.472;2023-06-04T03:40:40;2.58;;;1.92;;
18411;SDS011;27097;51.738;19.472;2023-06-04T03:43:07;4.65;;;1.90;;
18411;SDS011;27097;51.738;19.472;2023-06-04T03:45:36;3.10;;;2.00;;
18411;SDS011;27097;51.738;19.472;2023-06-04T03:48:03;2.55;;;1.83;;
18411;SDS011;27097;51.738;19.472;2023-06-04T03:50:30;3.47;;;2.10;;
18411;SDS011;27097;51.738;19.472;2023-06-04T03:52:57;6.28;;;2.28;;
18411;SDS011;27097;51.738;19.472;2023-06-04T03:55:25;3.17;;;1.98;;
18411;SDS011;27097;51.738;19.472;2023-06-04T03:57:51;3.17;;;2.17;;
18411;SDS011;27097;51.738;19.472;2023-06-04T04:00:18;4.00;;;1.95;;
18411;SDS011;27097;51.738;19.472;2023-06-04T04:02:47;2.92;;;1.95;;
18411;SDS011;27097;51.738;19.472;2023-06-04T04:05:14;3.75;;;2.00;;
18411;SDS011;27097;51.738;19.472;2023-06-04T04:07:42;5.00;;;2.50;;
18411;SDS011;27097;51.738;19.472;2023-06-04T04:10:09;2.33;;;1.75;;
18411;SDS011;27097;51.738;19.472;2023-06-04T04:12:36;5.25;;;2.05;;
18411;SDS011;27097;51.738;19.472;2023-06-04T04:15:03;2.80;;;2.00;;
18411;SDS011;27097;51.738;19.472;2023-06-04T04:17:30;7.82;;;1.80;;
18411;SDS011;27097;51.738;19.472;2023-06-04T04:19:59;2.95;;;1.80;;
18411;SDS011;27097;51.738;19.472;2023-06-04T04:22:26;3.55;;;1.90;;
18411;SDS011;27097;51.738;19.472;2023-06-04T04:24:53;4.30;;;2.10;;
18411;SDS011;27097;51.738;19.472;2023-06-04T04:27:20;3.80;;;1.90;;
18411;SDS011;27097;51.738;19.472;2023-06-04T04:29:47;2.55;;;1.98;;
18411;SDS011;27097;51.738;19.472;2023-06-04T04:32:15;5.18;;;2.33;;
18411;SDS011;27097;51.738;19.472;2023-06-04T04:34:50;5.05;;;2.05;;
18411;SDS011;27097;51.738;19.472;2023-06-04T04:37:18;2.85;;;1.70;;
18411;SDS011;27097;51.738;19.472;2023-06-04T04:39:47;3.28;;;2.00;;
18411;SDS011;27097;51.738;19.472;2023-06-04T04:42:16;3.30;;;2.10;;
18411;SDS011;27097;51.738;19.472;2023-06-04T04:44:43;5.57;;;1.90;;
18411;SDS011;27097;51.738;19.472;2023-06-04T04:47:13;4.78;;;1.98;;
18411;SDS011;27097;51.738;19.472;2023-06-04T04:49:39;3.20;;;2.00;;
18411;SDS011;27097;51.738;19.472;2023-06-04T04:52:07;2.95;;;1.90;;
18411;SDS011;27097;51.738;19.472;2023-06-04T04:54:35;3.97;;;2.10;;
18411;SDS011;27097;51.738;19.472;2023-06-04T04:57:02;3.30;;;1.90;;
18411;SDS011;27097;51.738;19.472;2023-06-04T04:59:29;3.38;;;1.70;;
18411;SDS011;27097;51.738;19.472;2023-06-04T05:01:56;5.00;;;1.67;;
18411;SDS011;27097;51.738;19.472;2023-06-04T05:04:23;3.50;;;1.90;;
18411;SDS011;27097;51.738;19.472;2023-06-04T05:06:49;4.10;;;1.92;;
18411;SDS011;27097;51.738;19.472;2023-06-04T05:09:16;4.78;;;1.75;;
18411;SDS011;27097;51.738;19.472;2023-06-04T05:11:44;2.42;;;1.67;;
18411;SDS011;27097;51.738;19.472;2023-06-04T05:14:11;6.45;;;2.10;;
18411;SDS011;27097;51.738;19.472;2023-06-04T05:16:38;3.30;;;2.00;;
18411;SDS011;27097;51.738;19.472;2023-06-04T05:19:06;3.20;;;1.90;;
18411;SDS011;27097;51.738;19.472;2023-06-04T05:21:33;2.88;;;1.80;;
18411;SDS011;27097;51.738;19.472;2023-06-04T05:24:02;3.20;;;1.70;;
18411;SDS011;27097;51.738;19.472;2023-06-04T05:26:29;3.05;;;2.00;;
18411;SDS011;27097;51.738;19.472;2023-06-04T05:28:57;5.35;;;1.85;;
18411;SDS011;27097;51.738;19.472;2023-06-04T05:31:26;5.68;;;1.85;;
18411;SDS011;27097;51.738;19.472;2023-06-04T05:33:53;4.57;;;1.77;;
18411;SDS011;27097;51.738;19.472;2023-06-04T05:36:19;4.63;;;1.90;;
18411;SDS011;27097;51.738;19.472;2023-06-04T05:38:46;4.50;;;1.80;;
18411;SDS011;27097;51.738;19.472;2023-06-04T05:41:13;5.60;;;2.00;;
18411;SDS011;27097;51.738;19.472;2023-06-04T05:43:40;6.05;;;2.10;;
18411;SDS011;27097;51.738;19.472;2023-06-04T05:46:10;5.07;;;1.83;;
18411;SDS011;27097;51.738;19.472;2023-06-04T05:48:38;6.90;;;2.00;;
18411;SDS011;27097;51.738;19.472;2023-06-04T05:51:05;7.82;;;1.90;;
18411;SDS011;27097;51.738;19.472;2023-06-04T05:53:32;6.40;;;2.10;;
18411;SDS011;27097;51.738;19.472;2023-06-04T05:55:59;6.65;;;2.13;;
18411;SDS011;27097;51.738;19.472;2023-06-04T05:58:26;9.20;;;1.90;;
18411;SDS011;27097;51.738;19.472;2023-06-04T06:00:53;6.97;;;1.90;;
18411;SDS011;27097;51.738;19.472;2023-06-04T06:03:21;6.57;;;2.15;;
18411;SDS011;27097;51.738;19.472;2023-06-04T06:05:48;8.63;;;1.88;;
18411;SDS011;27097;51.738;19.472;2023-06-04T06:08:15;8.60;;;1.92;;
18411;SDS011;27097;51.738;19.472;2023-06-04T06:10:42;5.88;;;1.60;;
18411;SDS011;27097;51.738;19.472;2023-06-04T06:13:08;2.22;;;1.42;;
18411;SDS011;27097;51.738;19.472;2023-06-04T06:15:35;4.07;;;1.70;;
18411;SDS011;27097;51.738;19.472;2023-06-04T06:18:02;6.47;;;1.50;;
18411;SDS011;27097;51.738;19.472;2023-06-04T06:20:30;5.43;;;1.40;;
18411;SDS011;27097;51.738;19.472;2023-06-04T06:22:57;6.07;;;1.70;;
18411;SDS011;27097;51.738;19.472;2023-06-04T06:25:24;5.78;;;1.80;;
18411;SDS011;27097;51.738;19.472;2023-06-04T06:27:51;3.88;;;1.58;;
18411;SDS011;27097;51.738;19.472;2023-06-04T06:30:18;3.33;;;1.40;;
18411;SDS011;27097;51.738;19.472;2023-06-04T06:32:44;4.20;;;1.58;;
18411;SDS011;27097;51.738;19.472;2023-06-04T06:35:13;7.88;;;1.48;;
18411;SDS011;27097;51.738;19.472;2023-06-04T06:37:41;2.15;;;1.40;;
18411;SDS011;27097;51.738;19.472;2023-06-04T06:40:08;4.68;;;1.30;;
18411;SDS011;27097;51.738;19.472;2023-06-04T06:42:35;4.00;;;1.33;;
18411;SDS011;27097;51.738;19.472;2023-06-04T06:45:02;5.43;;;1.20;;
18411;SDS011;27097;51.738;19.472;2023-06-04T06:47:30;5.03;;;1.30;;
18411;SDS011;27097;51.738;19.472;2023-06-04T06:49:57;8.93;;;1.20;;
18411;SDS011;27097;51.738;19.472;2023-06-04T06:52:24;12.82;;;1.50;;
18411;SDS011;27097;51.738;19.472;2023-06-04T06:54:54;3.95;;;1.23;;
18411;SDS011;27097;51.738;19.472;2023-06-04T06:57:21;5.32;;;1.17;;
18411;SDS011;27097;51.738;19.472;2023-06-04T06:59:47;5.82;;;1.00;;
18411;SDS011;27097;51.738;19.472;2023-06-04T07:02:17;4.55;;;1.20;;
18411;SDS011;27097;51.738;19.472;2023-06-04T07:04:44;8.48;;;1.20;;
18411;SDS011;27097;51.738;19.472;2023-06-04T07:07:11;6.47;;;1.13;;
18411;SDS011;27097;51.738;19.472;2023-06-04T07:09:38;6.47;;;1.38;;
18411;SDS011;27097;51.738;19.472;2023-06-04T07:12:06;5.43;;;1.33;;
18411;SDS011;27097;51.738;19.472;2023-06-04T07:14:33;2.28;;;1.08;;
18411;SDS011;27097;51.738;19.472;2023-06-04T07:17:00;3.97;;;0.80;;
18411;SDS011;27097;51.738;19.472;2023-06-04T07:19:27;9.75;;;1.20;;
18411;SDS011;27097;51.738;19.472;2023-06-04T07:21:54;5.70;;;1.25;;
18411;SDS011;27097;51.738;19.472;2023-06-04T07:24:21;3.90;;;0.93;;
18411;SDS011;27097;51.738;19.472;2023-06-04T07:26:48;5.75;;;0.98;;
18411;SDS011;27097;51.738;19.472;2023-06-04T07:29:16;8.70;;;1.40;;
18411;SDS011;27097;51.738;19.472;2023-06-04T07:31:43;5.25;;;1.00;;
18411;SDS011;27097;51.738;19.472;2023-06-04T07:34:10;5.28;;;1.00;;
18411;SDS011;27097;51.738;19.472;2023-06-04T07:36:37;3.33;;;0.73;;
18411;SDS011;27097;51.738;19.472;2023-06-04T07:39:04;3.42;;;0.65;;
18411;SDS011;27097;51.738;19.472;2023-06-04T07:41:34;5.47;;;1.00;;
18411;SDS011;27097;51.738;19.472;2023-06-04T07:44:00;3.85;;;0.80;;
18411;SDS011;27097;51.738;19.472;2023-06-04T07:46:29;4.85;;;0.80;;
18411;SDS011;27097;51.738;19.472;2023-06-04T07:48:55;2.47;;;0.60;;
18411;SDS011;27097;51.738;19.472;2023-06-04T07:51:22;6.45;;;0.80;;
18411;SDS011;27097;51.738;19.472;2023-06-04T07:53:50;2.25;;;0.75;;
18411;SDS011;27097;51.738;19.472;2023-06-04T07:56:17;3.85;;;0.60;;
18411;SDS011;27097;51.738;19.472;2023-06-04T07:58:44;2.70;;;0.60;;
18411;SDS011;27097;51.738;19.472;2023-06-04T08:01:11;1.85;;;0.57;;
18411;SDS011;27097;51.738;19.472;2023-06-04T08:03:40;2.05;;;0.55;;
18411;SDS011;27097;51.738;19.472;2023-06-04T08:06:06;3.10;;;0.52;;
18411;SDS011;27097;51.738;19.472;2023-06-04T08:08:33;1.95;;;0.43;;
18411;SDS011;27097;51.738;19.472;2023-06-04T08:11:00;0.70;;;0.40;;
18411;SDS011;27097;51.738;19.472;2023-06-04T08:13:27;0.80;;;0.50;;
18411;SDS011;27097;51.738;19.472;2023-06-04T08:15:54;3.70;;;0.57;;
18411;SDS011;27097;51.738;19.472;2023-06-04T08:18:21;5.88;;;0.57;;
18411;SDS011;27097;51.738;19.472;2023-06-04T08:20:49;1.65;;;0.40;;
18411;SDS011;27097;51.738;19.472;2023-06-04T08:23:17;0.40;;;0.40;;
18411;SDS011;27097;51.738;19.472;2023-06-04T08:25:44;0.57;;;0.40;;
18411;SDS011;27097;51.738;19.472;2023-06-04T08:28:12;0.50;;;0.50;;
18411;SDS011;27097;51.738;19.472;2023-06-04T08:30:40;3.17;;;0.60;;
18411;SDS011;27097;51.738;19.472;2023-06-04T08:33:07;0.40;;;0.40;;
18411;SDS011;27097;51.738;19.472;2023-06-04T08:35:35;0.55;;;0.40;;
18411;SDS011;27097;51.738;19.472;2023-06-04T08:38:03;2.78;;;0.50;;
18411;SDS011;27097;51.738;19.472;2023-06-04T08:40:30;0.40;;;0.40;;
18411;SDS011;27097;51.738;19.472;2023-06-04T08:42:57;2.67;;;0.60;;
18411;SDS011;27097;51.738;19.472;2023-06-04T08:45:26;0.43;;;0.40;;
18411;SDS011;27097;51.738;19.472;2023-06-04T08:47:53;0.60;;;0.40;;
18411;SDS011;27097;51.738;19.472;2023-06-04T08:50:20;0.50;;;0.40;;
18411;SDS011;27097;51.738;19.472;2023-06-04T08:52:49;1.33;;;0.60;;
18411;SDS011;27097;51.738;19.472;2023-06-04T08:55:21;1.00;;;0.50;;
18411;SDS011;27097;51.738;19.472;2023-06-04T08:57:49;2.22;;;0.55;;
18411;SDS011;27097;51.738;19.472;2023-06-04T09:00:17;1.10;;;0.50;;
18411;SDS011;27097;51.738;19.472;2023-06-04T09:02:44;3.55;;;0.60;;
18411;SDS011;27097;51.738;19.472;2023-06-04T09:05:15;4.32;;;0.50;;
18411;SDS011;27097;51.738;19.472;2023-06-04T09:07:46;3.05;;;0.50;;
18411;SDS011;27097;51.738;19.472;2023-06-04T09:10:15;4.13;;;0.60;;
18411;SDS011;27097;51.738;19.472;2023-06-04T09:12:46;2.70;;;0.40;;
18411;SDS011;27097;51.738;19.472;2023-06-04T09:15:13;1.88;;;1.10;;
18411;SDS011;27097;51.738;19.472;2023-06-04T09:17:40;2.30;;;0.60;;
18411;SDS011;27097;51.738;19.472;2023-06-04T09:20:07;1.48;;;0.40;;
18411;SDS011;27097;51.738;19.472;2023-06-04T09:22:44;5.18;;;0.65;;
18411;SDS011;27097;51.738;19.472;2023-06-04T09:25:18;3.75;;;0.60;;
18411;SDS011;27097;51.738;19.472;2023-06-04T09:27:47;4.43;;;0.55;;
18411;SDS011;27097;51.738;19.472;2023-06-04T09:30:14;6.10;;;0.55;;
18411;SDS011;27097;51.738;19.472;2023-06-04T09:32:41;5.03;;;0.70;;
18411;SDS011;27097;51.738;19.472;2023-06-04T09:35:09;7.75;;;0.65;;
18411;SDS011;27097;51.738;19.472;2023-06-04T09:37:38;4.75;;;0.80;;
18411;SDS011;27097;51.738;19.472;2023-06-04T09:40:05;6.63;;;0.70;;
18411;SDS011;27097;51.738;19.472;2023-06-04T09:42:41;3.75;;;0.63;;
18411;SDS011;27097;51.738;19.472;2023-06-04T09:45:10;6.80;;;0.70;;
18411;SDS011;27097;51.738;19.472;2023-06-04T09:47:38;6.88;;;1.40;;
18411;SDS011;27097;51.738;19.472;2023-06-04T09:50:07;6.47;;;1.30;;
18411;SDS011;27097;51.738;19.472;2023-06-04T09:52:37;14.48;;;1.48;;
18411;SDS011;27097;51.738;19.472;2023-06-04T09:55:15;9.27;;;1.48;;
18411;SDS011;27097;51.738;19.472;2023-06-04T09:57:46;5.15;;;1.40;;
18411;SDS011;27097;51.738;19.472;2023-06-04T10:00:15;11.73;;;1.70;;
18411;SDS011;27097;51.738;19.472;2023-06-04T10:02:44;7.60;;;1.65;;
18411;SDS011;27097;51.738;19.472;2023-06-04T10:05:12;6.97;;;1.50;;
18411;SDS011;27097;51.738;19.472;2023-06-04T10:07:40;6.38;;;1.52;;
18411;SDS011;27097;51.738;19.472;2023-06-04T10:10:09;6.97;;;1.52;;
18411;SDS011;27097;51.738;19.472;2023-06-04T10:12:41;9.18;;;1.70;;
18411;SDS011;27097;51.738;19.472;2023-06-04T10:15:10;10.60;;;1.77;;
18411;SDS011;27097;51.738;19.472;2023-06-04T10:17:39;5.30;;;1.30;;
18411;SDS011;27097;51.738;19.472;2023-06-04T10:20:07;11.23;;;1.55;;
18411;SDS011;27097;51.738;19.472;2023-06-04T10:22:35;12.60;;;1.60;;
18411;SDS011;27097;51.738;19.472;2023-06-04T10:25:02;5.82;;;1.45;;
18411;SDS011;27097;51.738;19.472;2023-06-04T10:27:29;3.88;;;1.23;;
18411;SDS011;27097;51.738;19.472;2023-06-04T10:29:57;8.82;;;1.58;;
18411;SDS011;27097;51.738;19.472;2023-06-04T10:32:26;5.22;;;1.35;;
18411;SDS011;27097;51.738;19.472;2023-06-04T10:34:55;4.85;;;1.50;;
18411;SDS011;27097;51.738;19.472;2023-06-04T10:37:22;5.10;;;1.50;;
18411;SDS011;27097;51.738;19.472;2023-06-04T10:39:50;5.35;;;1.30;;
18411;SDS011;27097;51.738;19.472;2023-06-04T10:42:18;4.93;;;1.48;;
18411;SDS011;27097;51.738;19.472;2023-06-04T10:44:46;6.28;;;1.45;;
18411;SDS011;27097;51.738;19.472;2023-06-04T10:47:18;4.70;;;1.50;;
18411;SDS011;27097;51.738;19.472;2023-06-04T10:49:45;4.97;;;1.35;;
18411;SDS011;27097;51.738;19.472;2023-06-04T10:52:14;4.20;;;1.50;;
18411;SDS011;27097;51.738;19.472;2023-06-04T10:54:41;3.38;;;1.10;;
18411;SDS011;27097;51.738;19.472;2023-06-04T10:57:12;2.03;;;1.20;;
18411;SDS011;27097;51.738;19.472;2023-06-04T10:59:40;4.15;;;1.48;;
18411;SDS011;27097;51.738;19.472;2023-06-04T11:02:07;2.38;;;1.30;;
18411;SDS011;27097;51.738;19.472;2023-06-04T11:04:35;3.10;;;1.35;;
18411;SDS011;27097;51.738;19.472;2023-06-04T11:07:03;3.88;;;1.27;;
18411;SDS011;27097;51.738;19.472;2023-06-04T11:09:35;2.55;;;1.20;;
18411;SDS011;27097;51.738;19.472;2023-06-04T11:12:04;3.38;;;1.35;;
18411;SDS011;27097;51.738;19.472;2023-06-04T11:14:32;2.55;;;1.00;;
18411;SDS011;27097;51.738;19.472;2023-06-04T11:17:08;3.88;;;1.20;;
18411;SDS011;27097;51.738;19.472;2023-06-04T11:19:37;5.07;;;1.20;;
18411;SDS011;27097;51.738;19.472;2023-06-04T11:22:05;1.80;;;0.93;;
18411;SDS011;27097;51.738;19.472;2023-06-04T11:24:37;3.05;;;0.90;;
18411;SDS011;27097;51.738;19.472;2023-06-04T11:27:05;2.20;;;0.95;;
18411;SDS011;27097;51.738;19.472;2023-06-04T11:29:32;1.70;;;1.00;;
18411;SDS011;27097;51.738;19.472;2023-06-04T11:31:59;2.30;;;1.20;;
18411;SDS011;27097;51.738;19.472;2023-06-04T11:34:26;2.30;;;1.10;;
18411;SDS011;27097;51.738;19.472;2023-06-04T11:36:53;2.38;;;1.02;;
18411;SDS011;27097;51.738;19.472;2023-06-04T11:39:21;2.80;;;1.10;;
18411;SDS011;27097;51.738;19.472;2023-06-04T11:41:50;2.50;;;1.02;;
18411;SDS011;27097;51.738;19.472;2023-06-04T11:44:18;2.70;;;1.20;;
18411;SDS011;27097;51.738;19.472;2023-06-04T11:46:45;3.13;;;1.20;;
18411;SDS011;27097;51.738;19.472;2023-06-04T11:49:17;4.03;;;1.10;;
18411;SDS011;27097;51.738;19.472;2023-06-04T11:51:45;2.30;;;1.05;;
18411;SDS011;27097;51.738;19.472;2023-06-04T11:54:13;1.23;;;0.90;;
18411;SDS011;27097;51.738;19.472;2023-06-04T11:56:40;1.65;;;1.10;;
18411;SDS011;27097;51.738;19.472;2023-06-04T11:59:10;1.52;;;0.80;;
18411;SDS011;27097;51.738;19.472;2023-06-04T12:01:38;1.58;;;0.98;;
18411;SDS011;27097;51.738;19.472;2023-06-04T12:04:11;2.00;;;1.02;;
18411;SDS011;27097;51.738;19.472;2023-06-04T12:06:38;2.00;;;1.00;;
18411;SDS011;27097;51.738;19.472;2023-06-04T12:09:19;2.25;;;1.05;;
18411;SDS011;27097;51.738;19.472;2023-06-04T12:11:47;2.40;;;1.23;;
18411;SDS011;27097;51.738;19.472;2023-06-04T12:14:17;2.08;;;1.00;;
18411;SDS011;27097;51.738;19.472;2023-06-04T12:16:53;2.47;;;1.00;;
18411;SDS011;27097;51.738;19.472;2023-06-04T12:19:21;1.75;;;1.00;;
18411;SDS011;27097;51.738;19.472;2023-06-04T12:21:58;1.42;;;0.90;;
18411;SDS011;27097;51.738;19.472;2023-06-04T12:24:26;2.15;;;1.00;;
18411;SDS011;27097;51.738;19.472;2023-06-04T12:27:00;1.20;;;1.00;;
18411;SDS011;27097;51.738;19.472;2023-06-04T12:29:30;1.30;;;0.90;;
18411;SDS011;27097;51.738;19.472;2023-06-04T12:32:03;1.52;;;1.00;;
18411;SDS011;27097;51.738;19.472;2023-06-04T12:34:33;3.08;;;1.08;;
18411;SDS011;27097;51.738;19.472;2023-06-04T12:37:00;2.17;;;1.10;;
18411;SDS011;27097;51.738;19.472;2023-06-04T12:39:28;1.92;;;0.88;;
18411;SDS011;27097;51.738;19.472;2023-06-04T12:41:55;1.08;;;0.95;;
18411;SDS011;27097;51.738;19.472;2023-06-04T12:44:22;2.92;;;0.90;;
18411;SDS011;27097;51.738;19.472;2023-06-04T12:46:50;3.03;;;1.20;;
18411;SDS011;27097;51.738;19.472;2023-06-04T12:49:17;1.75;;;1.00;;
18411;SDS011;27097;51.738;19.472;2023-06-04T12:51:44;1.58;;;0.90;;
18411;SDS011;27097;51.738;19.472;2023-06-04T12:54:11;3.13;;;1.10;;
18411;SDS011;27097;51.738;19.472;2023-06-04T12:56:38;3.10;;;1.15;;
18411;SDS011;27097;51.738;19.472;2023-06-04T12:59:06;1.08;;;0.90;;
18411;SDS011;27097;51.738;19.472;2023-06-04T13:01:33;1.23;;;0.88;;
18411;SDS011;27097;51.738;19.472;2023-06-04T13:04:01;1.85;;;0.98;;
18411;SDS011;27097;51.738;19.472;2023-06-04T13:06:28;0.93;;;0.82;;
18411;SDS011;27097;51.738;19.472;2023-06-04T13:08:55;1.35;;;0.98;;
18411;SDS011;27097;51.738;19.472;2023-06-04T13:11:22;1.50;;;0.95;;
18411;SDS011;27097;51.738;19.472;2023-06-04T13:13:49;1.23;;;0.95;;
18411;SDS011;27097;51.738;19.472;2023-06-04T13:16:16;1.33;;;0.80;;
18411;SDS011;27097;51.738;19.472;2023-06-04T13:18:43;1.27;;;0.85;;
18411;SDS011;27097;51.738;19.472;2023-06-04T13:21:12;1.10;;;0.85;;
18411;SDS011;27097;51.738;19.472;2023-06-04T13:23:39;1.15;;;0.98;;
18411;SDS011;27097;51.738;19.472;2023-06-04T13:26:05;1.33;;;0.80;;
18411;SDS011;27097;51.738;19.472;2023-06-04T13:28:32;1.42;;;0.80;;
18411;SDS011;27097;51.738;19.472;2023-06-04T13:30:59;0.90;;;0.80;;
18411;SDS011;27097;51.738;19.472;2023-06-04T13:33:26;0.82;;;0.70;;
18411;SDS011;27097;51.738;19.472;2023-06-04T13:35:53;1.05;;;0.80;;
18411;SDS011;27097;51.738;19.472;2023-06-04T13:38:21;1.58;;;0.98;;
18411;SDS011;27097;51.738;19.472;2023-06-04T13:40:48;1.60;;;1.00;;
18411;SDS011;27097;51.738;19.472;2023-06-04T13:43:15;1.95;;;0.95;;
18411;SDS011;27097;51.738;19.472;2023-06-04T13:45:42;1.83;;;1.00;;
18411;SDS011;27097;51.738;19.472;2023-06-04T13:48:10;1.42;;;0.90;;
18411;SDS011;27097;51.738;19.472;2023-06-04T13:50:37;2.13;;;0.90;;
18411;SDS011;27097;51.738;19.472;2023-06-04T13:53:04;1.73;;;1.02;;
18411;SDS011;27097;51.738;19.472;2023-06-04T13:55:33;1.65;;;1.05;;
18411;SDS011;27097;51.738;19.472;2023-06-04T13:58:00;1.10;;;0.73;;
18411;SDS011;27097;51.738;19.472;2023-06-04T14:00:27;2.10;;;0.80;;
18411;SDS011;27097;51.738;19.472;2023-06-04T14:02:55;1.10;;;1.00;;
18411;SDS011;27097;51.738;19.472;2023-06-04T14:05:24;1.38;;;1.00;;
18411;SDS011;27097;51.738;19.472;2023-06-04T14:07:53;1.63;;;1.00;;
18411;SDS011;27097;51.738;19.472;2023-06-04T14:10:20;2.50;;;1.00;;
18411;SDS011;27097;51.738;19.472;2023-06-04T14:12:48;1.15;;;1.05;;
18411;SDS011;27097;51.738;19.472;2023-06-04T14:15:15;1.10;;;1.00;;
18411;SDS011;27097;51.738;19.472;2023-06-04T14:17:42;2.33;;;0.85;;
18411;SDS011;27097;51.738;19.472;2023-06-04T14:20:09;1.92;;;0.90;;
18411;SDS011;27097;51.738;19.472;2023-06-04T14:22:36;3.75;;;1.25;;
18411;SDS011;27097;51.738;19.472;2023-06-04T14:25:04;10.55;;;1.20;;
18411;SDS011;27097;51.738;19.472;2023-06-04T14:27:31;9.10;;;1.10;;
18411;SDS011;27097;51.738;19.472;2023-06-04T14:30:00;9.32;;;1.33;;
18411;SDS011;27097;51.738;19.472;2023-06-04T14:32:28;4.60;;;1.08;;
18411;SDS011;27097;51.738;19.472;2023-06-04T14:34:57;5.72;;;1.20;;
18411;SDS011;27097;51.738;19.472;2023-06-04T14:37:24;12.73;;;1.02;;